Terminal Aerodrome Forecast
Issued by NWS

Home | Current Version | Previous Version | Graphics & Text | Print | Product List | Glossary On
Versions: 1 2 3 4 5 6 7 8 9 10 11 12 13 14 15 16 17 18 19 20 21 22 23 24 25 26
581
FTUS43 KLOT 111926 AAA
TAFMDW
TAF AMD
KMDW 111926Z 1119/1224 17009KT P6SM SCT070 BKN120
     FM112200 03006KT P6SM BKN080
     FM112300 35013G19KT P6SM -SHSN OVC035
      TEMPO 1123/1201 4SM -SHSN OVC015
     FM120200 33018G30KT P6SM BKN030
     FM121300 32015G22KT P6SM SCT035 SCT250=

USA.gov is the U.S. government's official web portal to all federal, state and local government web resources and services.